createdAt,value
2018-08-31T00:01:20.087Z,49.30
2018-08-31T00:04:56.716Z,49.50
2018-08-31T00:08:41.337Z,49.60
2018-08-31T00:13:26.282Z,49.80
2018-08-31T00:15:54.042Z,49.70
2018-08-31T00:18:21.679Z,50.20
2018-08-31T00:20:49.350Z,50.80
2018-08-31T00:23:16.999Z,51.10
2018-08-31T00:26:10.288Z,52.30
2018-08-31T00:28:50.061Z,53.40
2018-08-31T00:33:37.289Z,51.40
2018-08-31T00:40:24.326Z,51.30
2018-08-31T00:45:08.641Z,53.80
2018-08-31T00:47:36.276Z,53.10
2018-08-31T00:50:03.917Z,53.20
2018-08-31T00:52:31.582Z,54.60
2018-08-31T00:54:59.202Z,55.50
2018-08-31T00:57:26.811Z,55.70
2018-08-31T00:59:54.916Z,55.10
2018-08-31T01:02:22.588Z,55.50
2018-08-31T01:04:50.418Z,55.50
2018-08-31T01:07:18.033Z,55.50
2018-08-31T01:09:45.711Z,55.50
2018-08-31T01:12:14.011Z,56.10
2018-08-31T01:14:42.097Z,56.20
2018-08-31T01:17:09.795Z,55.20
2018-08-31T01:19:37.680Z,54.60
2018-08-31T01:22:05.317Z,54.10
2018-08-31T01:24:32.981Z,54.10
2018-08-31T01:27:00.690Z,55.20
2018-08-31T01:29:28.847Z,55.30
2018-08-31T01:31:56.518Z,56.00
2018-08-31T01:34:24.185Z,57.70
2018-08-31T01:36:51.812Z,57.10
2018-08-31T01:39:19.572Z,57.20
2018-08-31T01:41:47.829Z,58.30
2018-08-31T01:44:15.444Z,59.00
2018-08-31T01:46:43.265Z,58.90
2018-08-31T01:49:10.911Z,58.90
2018-08-31T01:51:38.582Z,58.80
2018-08-31T01:54:06.235Z,58.70
2018-08-31T01:56:34.124Z,58.70
2018-08-31T01:59:01.858Z,58.20
2018-08-31T02:01:29.501Z,58.10
2018-08-31T02:03:58.272Z,56.70
2018-08-31T02:06:26.031Z,54.70
2018-08-31T02:08:59.307Z,53.30
2018-08-31T02:11:27.751Z,53.30
2018-08-31T02:13:55.405Z,54.00
2018-08-31T02:16:23.039Z,55.90
2018-08-31T02:18:50.881Z,54.40
2018-08-31T02:21:18.612Z,56.10
2018-08-31T02:23:46.534Z,55.30
2018-08-31T02:26:14.141Z,56.50
2018-08-31T02:28:42.622Z,57.60
2018-08-31T02:31:10.589Z,57.80
2018-08-31T02:33:38.980Z,58.10
2018-08-31T02:36:06.644Z,57.40
2018-08-31T02:38:34.262Z,57.70
2018-08-31T02:41:02.165Z,57.90
2018-08-31T02:43:29.902Z,58.70
2018-08-31T02:45:57.634Z,58.00
2018-08-31T02:48:25.300Z,58.20
2018-08-31T02:50:53.778Z,58.20
2018-08-31T02:53:21.881Z,59.50
2018-08-31T02:55:50.800Z,60.00
2018-08-31T02:58:18.389Z,60.30
2018-08-31T03:00:46.713Z,60.40
2018-08-31T03:03:14.437Z,61.00
2018-08-31T03:05:42.083Z,60.70
2018-08-31T03:08:10.516Z,59.50
2018-08-31T03:10:38.258Z,61.90
2018-08-31T03:13:06.169Z,61.90
2018-08-31T03:15:33.848Z,60.20
2018-08-31T03:18:01.645Z,59.90
2018-08-31T03:20:29.386Z,58.20
2018-08-31T03:22:57.362Z,58.20
2018-08-31T03:25:25.468Z,58.20
2018-08-31T03:27:53.580Z,58.50
2018-08-31T03:30:21.462Z,58.30
2018-08-31T03:32:49.240Z,59.10
2018-08-31T03:35:16.872Z,60.40
2018-08-31T03:37:45.109Z,60.00
2018-08-31T03:40:12.820Z,59.60
2018-08-31T03:42:40.435Z,59.80
2018-08-31T03:45:08.274Z,60.50
2018-08-31T03:47:35.913Z,59.70
2018-08-31T03:50:03.807Z,59.50
2018-08-31T03:52:31.437Z,60.00
2018-08-31T03:54:59.140Z,60.20
2018-08-31T03:57:26.846Z,59.80
2018-08-31T03:59:54.897Z,59.20
2018-08-31T04:02:23.340Z,59.30
2018-08-31T04:04:51.691Z,60.10
2018-08-31T04:07:20.404Z,60.40
2018-08-31T04:09:48.222Z,60.40
2018-08-31T04:12:15.946Z,60.30
2018-08-31T04:14:43.544Z,61.40
2018-08-31T04:17:11.584Z,61.30
2018-08-31T04:19:39.220Z,62.00
2018-08-31T04:22:07.267Z,60.80
2018-08-31T04:24:35.268Z,60.90
2018-08-31T04:27:03.304Z,61.10
2018-08-31T04:29:31.899Z,61.70
2018-08-31T04:32:00.154Z,61.80
2018-08-31T04:34:29.698Z,62.30
2018-08-31T04:36:57.849Z,63.20
2018-08-31T04:39:25.592Z,63.20
2018-08-31T04:41:53.323Z,63.90
2018-08-31T04:44:21.103Z,63.90
2018-08-31T04:46:48.832Z,63.10
2018-08-31T04:49:16.724Z,64.20
2018-08-31T04:51:44.386Z,63.30
2018-08-31T04:54:12.120Z,63.90
2018-08-31T04:56:39.740Z,62.50
2018-08-31T04:59:07.365Z,62.90
2018-08-31T05:01:34.884Z,62.00
2018-08-31T05:04:02.939Z,62.00
2018-08-31T05:06:31.824Z,61.80
2018-08-31T05:08:59.706Z,61.60
2018-08-31T05:11:27.336Z,61.80
2018-08-31T05:13:55.583Z,61.90
2018-08-31T05:16:23.137Z,61.40
2018-08-31T05:18:50.768Z,62.50
2018-08-31T05:21:19.865Z,61.90
2018-08-31T05:23:47.681Z,62.10
2018-08-31T05:26:15.539Z,62.50
2018-08-31T05:28:43.696Z,62.50
2018-08-31T05:31:11.420Z,62.10
2018-08-31T05:33:39.123Z,61.40
2018-08-31T05:36:06.744Z,61.80
2018-08-31T05:38:34.285Z,61.80
2018-08-31T05:41:01.992Z,61.90
2018-08-31T05:43:30.178Z,62.40
2018-08-31T05:45:58.652Z,62.30
2018-08-31T05:48:26.357Z,62.40
2018-08-31T05:50:54.644Z,62.90
2018-08-31T05:53:23.559Z,62.70
2018-08-31T05:55:51.905Z,62.40
2018-08-31T05:58:19.565Z,61.60
2018-08-31T06:00:47.167Z,61.00
2018-08-31T06:03:14.735Z,61.50
2018-08-31T06:05:42.487Z,61.20
2018-08-31T06:08:10.031Z,61.30
2018-08-31T06:10:37.675Z,61.60
2018-08-31T06:13:05.946Z,61.50
2018-08-31T06:15:33.737Z,61.80
2018-08-31T06:18:01.428Z,62.00
2018-08-31T06:20:29.201Z,62.10
2018-08-31T06:22:56.748Z,62.30
2018-08-31T06:25:24.440Z,61.80
2018-08-31T06:27:52.121Z,62.00
2018-08-31T06:30:19.700Z,61.60
2018-08-31T06:32:47.801Z,61.70
2018-08-31T06:35:15.541Z,61.10
2018-08-31T06:37:43.973Z,60.90
2018-08-31T06:40:11.700Z,61.10
2018-08-31T06:42:39.516Z,60.40
2018-08-31T06:45:07.465Z,60.50
2018-08-31T06:47:35.198Z,60.20
2018-08-31T06:50:03.020Z,58.90
2018-08-31T06:52:31.328Z,59.00
2018-08-31T06:54:59.070Z,59.10
2018-08-31T06:57:26.763Z,58.90
2018-08-31T06:59:54.628Z,59.50
2018-08-31T07:02:22.300Z,59.00
2018-08-31T07:04:49.982Z,58.80
2018-08-31T07:07:18.198Z,60.70
2018-08-31T07:09:45.957Z,59.90
2018-08-31T07:12:13.689Z,60.20
2018-08-31T07:14:41.377Z,60.20
2018-08-31T07:17:09.039Z,60.30
2018-08-31T07:19:36.737Z,60.10
2018-08-31T07:22:04.899Z,59.70
2018-08-31T07:24:33.178Z,60.60
2018-08-31T07:27:00.880Z,60.60
2018-08-31T07:29:28.552Z,60.60
2018-08-31T07:31:56.205Z,60.50
2018-08-31T07:34:24.138Z,59.30
2018-08-31T07:36:51.765Z,59.40
2018-08-31T07:39:19.504Z,59.70
2018-08-31T07:41:47.172Z,58.30
2018-08-31T07:44:15.110Z,57.30
2018-08-31T07:46:42.863Z,57.80
2018-08-31T07:49:10.534Z,58.40
2018-08-31T07:51:38.076Z,59.30
2018-08-31T07:54:06.444Z,58.10
2018-08-31T07:56:35.338Z,56.60
2018-08-31T07:59:02.983Z,58.20
2018-08-31T08:01:30.768Z,57.50
2018-08-31T08:03:58.418Z,57.50
2018-08-31T08:06:26.423Z,55.50
2018-08-31T08:08:54.660Z,56.80
2018-08-31T08:11:23.064Z,57.00
2018-08-31T08:13:50.781Z,57.70
2018-08-31T08:16:18.397Z,58.80
2018-08-31T08:18:46.590Z,59.00
2018-08-31T08:21:14.960Z,58.90
2018-08-31T08:23:42.713Z,59.50
2018-08-31T08:26:10.685Z,59.60
2018-08-31T08:28:38.456Z,57.60
2018-08-31T08:31:06.692Z,56.80
2018-08-31T08:33:34.349Z,56.30
2018-08-31T08:36:02.269Z,56.80
2018-08-31T08:38:29.902Z,58.20
2018-08-31T08:40:57.792Z,57.40
2018-08-31T08:43:25.466Z,57.60
2018-08-31T08:45:53.738Z,60.40
2018-08-31T08:48:21.628Z,57.00
2018-08-31T08:50:49.313Z,56.40
2018-08-31T08:53:17.018Z,56.40
2018-08-31T08:55:44.705Z,57.00
2018-08-31T08:58:13.116Z,57.20
2018-08-31T09:00:41.445Z,55.10
2018-08-31T09:03:10.101Z,54.60
2018-08-31T09:05:37.914Z,53.40
2018-08-31T09:08:05.536Z,52.20
2018-08-31T09:10:33.924Z,52.10
2018-08-31T09:13:01.751Z,51.30
2018-08-31T09:15:29.715Z,51.40
2018-08-31T09:17:57.414Z,52.50
2018-08-31T09:20:25.161Z,53.10
2018-08-31T09:22:53.600Z,53.80
2018-08-31T09:25:21.701Z,53.90
2018-08-31T09:27:49.424Z,52.90
2018-08-31T09:30:22.692Z,52.50
2018-08-31T09:32:51.110Z,52.60
2018-08-31T09:35:18.904Z,50.90
2018-08-31T09:37:46.596Z,50.90
2018-08-31T09:40:14.599Z,49.90
2018-08-31T09:42:42.391Z,50.00
2018-08-31T09:45:10.052Z,49.70
2018-08-31T09:47:37.842Z,51.90
2018-08-31T09:50:06.588Z,54.10
2018-08-31T09:52:34.471Z,54.90
2018-08-31T09:55:02.166Z,53.70
2018-08-31T09:57:30.378Z,53.00
2018-08-31T09:59:58.603Z,52.30
2018-08-31T10:02:37.117Z,54.00
2018-08-31T10:05:06.912Z,52.70
2018-08-31T10:10:37.245Z,52.50
2018-08-31T10:13:05.049Z,52.70
2018-08-31T10:15:32.936Z,51.60
2018-08-31T10:18:00.613Z,50.70
2018-08-31T10:20:29.204Z,51.10
2018-08-31T10:22:57.745Z,51.40
2018-08-31T10:25:25.339Z,50.30
2018-08-31T10:27:53.571Z,51.60
2018-08-31T10:30:21.744Z,50.30
2018-08-31T10:32:50.137Z,51.70
2018-08-31T10:35:18.157Z,52.60
2018-08-31T10:37:46.455Z,53.30
2018-08-31T10:40:14.193Z,54.00
2018-08-31T10:42:41.782Z,51.30
2018-08-31T10:45:09.873Z,50.40
2018-08-31T10:47:37.792Z,51.40
2018-08-31T10:50:07.170Z,52.80
2018-08-31T10:52:34.786Z,50.60
2018-08-31T10:55:02.496Z,49.80
2018-08-31T10:57:30.174Z,48.20
2018-08-31T10:59:58.552Z,47.60
2018-08-31T11:02:26.545Z,49.10
2018-08-31T11:04:54.263Z,49.80
2018-08-31T11:07:22.561Z,49.50
2018-08-31T11:09:51.068Z,48.90
2018-08-31T11:12:18.871Z,50.10
2018-08-31T11:14:46.625Z,50.80
2018-08-31T11:17:15.685Z,51.90
2018-08-31T11:19:43.391Z,52.10
2018-08-31T11:22:11.761Z,51.20
2018-08-31T11:24:39.651Z,50.40
2018-08-31T11:27:07.726Z,51.30
2018-08-31T11:29:35.270Z,51.30
2018-08-31T11:32:03.369Z,51.60
2018-08-31T11:34:31.174Z,50.70
2018-08-31T11:36:58.826Z,50.70
2018-08-31T11:39:26.742Z,50.50
2018-08-31T11:41:54.389Z,50.90
2018-08-31T11:44:23.794Z,50.00
2018-08-31T11:46:51.547Z,50.30
2018-08-31T11:49:19.840Z,51.70
2018-08-31T11:51:47.672Z,50.10
2018-08-31T11:54:15.334Z,51.10
2018-08-31T11:56:43.530Z,50.10
2018-08-31T11:59:11.807Z,49.50
2018-08-31T12:01:40.302Z,48.40
2018-08-31T12:04:08.249Z,49.70
2018-08-31T12:06:36.122Z,49.70
2018-08-31T12:09:05.368Z,49.50
2018-08-31T12:11:33.364Z,50.40
2018-08-31T12:14:01.052Z,48.80
2018-08-31T12:16:28.976Z,48.40
2018-08-31T12:18:57.435Z,49.90
2018-08-31T12:21:25.972Z,49.10
2018-08-31T12:23:53.783Z,49.30
2018-08-31T12:26:22.955Z,48.10
2018-08-31T12:28:50.585Z,47.50
2018-08-31T12:31:18.275Z,45.40
2018-08-31T12:33:45.846Z,45.80
2018-08-31T12:36:13.593Z,44.80
2018-08-31T12:38:41.323Z,45.70
2018-08-31T12:41:09.431Z,47.20
2018-08-31T12:43:37.416Z,47.50
2018-08-31T12:46:05.098Z,45.20
2018-08-31T12:48:37.539Z,44.80
2018-08-31T12:51:05.202Z,46.30
2018-08-31T12:53:33.633Z,46.00
2018-08-31T12:56:01.276Z,45.90
2018-08-31T12:58:28.896Z,46.50
2018-08-31T13:00:56.777Z,45.20
2018-08-31T13:03:24.505Z,45.40
2018-08-31T13:05:53.537Z,43.60
2018-08-31T13:08:21.289Z,42.60
2018-08-31T13:10:48.988Z,42.30
2018-08-31T13:13:16.712Z,43.90
2018-08-31T13:15:45.262Z,44.80
2018-08-31T13:18:13.232Z,44.80
2018-08-31T13:20:41.031Z,45.20
2018-08-31T13:23:10.389Z,45.00
2018-08-31T13:25:38.201Z,44.50
2018-08-31T13:28:07.383Z,44.20
2018-08-31T13:30:35.113Z,43.60
2018-08-31T13:33:02.934Z,44.60
2018-08-31T13:35:32.783Z,46.70
2018-08-31T13:38:00.798Z,47.80
2018-08-31T13:40:28.486Z,46.80
2018-08-31T13:42:56.333Z,46.20
2018-08-31T13:45:24.184Z,47.50
2018-08-31T13:47:52.042Z,47.30
2018-08-31T13:50:19.763Z,47.70
2018-08-31T13:52:47.442Z,47.40
2018-08-31T13:55:15.149Z,46.90
2018-08-31T13:57:43.233Z,46.80
2018-08-31T14:00:10.920Z,50.40
2018-08-31T14:02:38.576Z,53.60
2018-08-31T14:05:07.052Z,54.50
2018-08-31T14:07:35.827Z,55.30
2018-08-31T14:10:03.676Z,56.20
2018-08-31T14:12:31.303Z,57.90
2018-08-31T14:14:59.763Z,58.80
2018-08-31T14:17:27.876Z,59.60
2018-08-31T14:19:55.873Z,59.50
2018-08-31T14:22:23.628Z,60.00
2018-08-31T14:24:52.017Z,61.60
2018-08-31T14:27:19.644Z,62.30
2018-08-31T14:29:47.949Z,66.00
2018-08-31T14:32:16.228Z,68.40
2018-08-31T14:34:43.856Z,70.90
2018-08-31T14:37:11.535Z,73.30
2018-08-31T14:39:39.775Z,71.50
2018-08-31T14:42:07.549Z,77.30
2018-08-31T14:44:35.392Z,76.70
2018-08-31T14:47:03.136Z,79.30
2018-08-31T14:49:31.750Z,76.80
2018-08-31T14:51:59.179Z,76.80
2018-08-31T14:54:31.421Z,75.30
2018-08-31T14:56:59.069Z,75.90
2018-08-31T14:59:27.024Z,76.20
2018-08-31T15:01:55.897Z,74.00
2018-08-31T15:04:24.186Z,73.80
2018-08-31T15:06:51.783Z,72.80
2018-08-31T15:09:20.065Z,73.50
2018-08-31T15:11:47.769Z,73.80
2018-08-31T15:14:18.667Z,73.80
2018-08-31T15:16:46.995Z,74.40
2018-08-31T15:19:15.806Z,73.10
2018-08-31T15:21:44.272Z,73.70
2018-08-31T15:24:12.381Z,73.10
2018-08-31T15:26:40.812Z,73.00
2018-08-31T15:29:08.574Z,72.60
2018-08-31T15:31:36.526Z,74.80
2018-08-31T15:34:05.221Z,73.00
2018-08-31T15:36:32.894Z,75.40
2018-08-31T15:39:01.079Z,76.50
2018-08-31T15:41:28.814Z,79.90
2018-08-31T15:43:56.577Z,80.10
2018-08-31T15:46:24.977Z,80.90
2018-08-31T15:48:53.054Z,80.40
2018-08-31T15:51:21.035Z,81.40
2018-08-31T15:53:48.840Z,81.10
2018-08-31T15:56:16.558Z,80.10
2018-08-31T15:58:44.548Z,79.00
2018-08-31T16:01:12.358Z,75.90
2018-08-31T16:03:40.272Z,75.50
2018-08-31T16:06:08.876Z,73.80
2018-08-31T16:08:36.621Z,71.40
2018-08-31T16:11:04.509Z,69.60
2018-08-31T16:13:32.229Z,71.50
2018-08-31T16:15:59.991Z,70.30
2018-08-31T16:18:27.758Z,71.70
2018-08-31T16:20:56.084Z,70.60
2018-08-31T16:23:23.860Z,70.20
2018-08-31T16:25:52.334Z,71.90
2018-08-31T16:28:20.426Z,70.00
2018-08-31T16:30:48.443Z,69.70
2018-08-31T16:33:16.311Z,70.50
2018-08-31T16:35:44.624Z,69.50
2018-08-31T16:38:12.328Z,69.30
2018-08-31T16:40:40.874Z,70.20
2018-08-31T16:43:08.732Z,71.10
2018-08-31T16:45:36.431Z,70.80
2018-08-31T16:48:04.664Z,69.50
2018-08-31T16:50:32.346Z,70.70
2018-08-31T16:53:00.954Z,70.10
2018-08-31T16:55:29.092Z,70.50
2018-08-31T16:57:57.336Z,69.80
2018-08-31T17:00:25.103Z,69.50
2018-08-31T17:02:52.857Z,69.80
2018-08-31T17:05:20.944Z,70.40
2018-08-31T17:07:48.953Z,70.90
2018-08-31T17:10:17.416Z,70.50
2018-08-31T17:12:45.141Z,69.40
2018-08-31T17:15:12.822Z,69.10
2018-08-31T17:17:40.952Z,70.10
2018-08-31T17:20:08.752Z,70.80
2018-08-31T17:22:36.744Z,70.50
2018-08-31T17:25:05.927Z,69.90
2018-08-31T17:27:39.248Z,69.60
2018-08-31T17:30:13.426Z,70.70
2018-08-31T17:32:46.649Z,72.50
2018-08-31T17:35:20.441Z,72.50
2018-08-31T17:37:48.407Z,71.20
2018-08-31T17:40:16.102Z,72.40
2018-08-31T17:42:43.866Z,72.00
2018-08-31T17:45:16.498Z,73.20
2018-08-31T17:47:44.256Z,74.00
2018-08-31T17:50:12.325Z,75.60
2018-08-31T17:52:40.732Z,74.60
2018-08-31T17:55:09.128Z,75.10
2018-08-31T17:57:37.093Z,73.20
2018-08-31T18:00:04.930Z,73.50
2018-08-31T18:02:32.914Z,74.20
2018-08-31T18:05:01.095Z,72.60
2018-08-31T18:07:30.769Z,73.50
2018-08-31T18:09:58.667Z,74.60
2018-08-31T18:12:26.636Z,75.00
2018-08-31T18:14:54.265Z,75.50
2018-08-31T18:17:22.787Z,75.50
2018-08-31T18:19:51.024Z,75.60
2018-08-31T18:22:19.053Z,75.30
2018-08-31T18:24:46.750Z,75.50
2018-08-31T18:27:14.628Z,75.40
2018-08-31T18:29:43.029Z,74.50
2018-08-31T18:32:11.113Z,74.50
2018-08-31T18:34:38.923Z,75.10
2018-08-31T18:37:07.491Z,75.50
2018-08-31T18:39:35.174Z,75.60
2018-08-31T18:42:03.590Z,75.50
2018-08-31T18:44:31.920Z,74.70
2018-08-31T18:46:59.648Z,75.30
2018-08-31T18:49:27.919Z,76.40
2018-08-31T18:51:55.593Z,76.20
2018-08-31T18:54:24.948Z,76.00
2018-08-31T18:56:52.914Z,75.90
2018-08-31T18:59:20.897Z,76.20
2018-08-31T19:01:49.816Z,78.70
2018-08-31T19:04:17.868Z,78.70
2018-08-31T19:06:46.180Z,76.90
2018-08-31T19:09:13.989Z,76.30
2018-08-31T19:11:42.494Z,75.50
2018-08-31T19:14:10.769Z,74.90
2018-08-31T19:16:38.697Z,75.40
2018-08-31T19:19:06.656Z,77.10
2018-08-31T19:21:34.699Z,77.10
2018-08-31T19:24:03.530Z,75.40
2018-08-31T19:26:32.004Z,75.40
2018-08-31T19:29:00.179Z,74.80
2018-08-31T19:31:28.165Z,75.20
2018-08-31T19:33:56.061Z,75.10
2018-08-31T19:36:24.896Z,75.50
2018-08-31T19:38:53.158Z,74.90
2018-08-31T19:41:21.050Z,75.50
2018-08-31T19:43:50.217Z,75.70
2018-08-31T19:46:18.227Z,76.60
2018-08-31T19:48:46.413Z,75.60
2018-08-31T19:51:14.400Z,76.50
2018-08-31T19:53:43.137Z,78.30
2018-08-31T19:56:15.751Z,77.50
2018-08-31T19:58:43.570Z,77.00
2018-08-31T20:01:12.411Z,77.10
2018-08-31T20:03:40.191Z,77.10
2018-08-31T20:06:08.277Z,77.00
2018-08-31T20:08:36.069Z,76.50
2018-08-31T20:11:04.110Z,78.00
2018-08-31T20:13:32.359Z,76.90
2018-08-31T20:16:00.255Z,78.00
2018-08-31T20:18:28.124Z,78.10
2018-08-31T20:20:56.268Z,77.60
2018-08-31T20:23:24.340Z,78.90
2018-08-31T20:25:52.958Z,79.90
2018-08-31T20:28:21.514Z,80.50
2018-08-31T20:30:49.341Z,82.20
2018-08-31T20:33:21.338Z,83.30
2018-08-31T20:35:50.017Z,82.10
2018-08-31T20:38:18.093Z,81.80
2018-08-31T20:40:46.307Z,82.60
2018-08-31T20:43:14.383Z,81.50
2018-08-31T20:45:42.448Z,80.40
2018-08-31T20:48:10.606Z,81.40
2018-08-31T20:50:39.083Z,81.90
2018-08-31T20:53:07.002Z,81.40
2018-08-31T20:55:44.719Z,81.40
2018-08-31T20:58:14.084Z,82.30
2018-08-31T21:00:43.270Z,83.40
2018-08-31T21:03:12.212Z,84.40
2018-08-31T21:05:41.357Z,84.50
2018-08-31T21:08:09.403Z,82.40
2018-08-31T21:10:37.270Z,81.80
2018-08-31T21:13:05.122Z,82.90
2018-08-31T21:15:32.921Z,83.50
2018-08-31T21:18:00.836Z,83.90
2018-08-31T21:20:29.425Z,84.40
2018-08-31T21:22:57.313Z,84.40
2018-08-31T21:25:29.749Z,84.10
2018-08-31T21:27:57.550Z,84.80
2018-08-31T21:30:25.375Z,84.20
2018-08-31T21:32:53.625Z,84.40
2018-08-31T21:35:21.717Z,83.10
2018-08-31T21:37:49.443Z,83.90
2018-08-31T21:40:17.221Z,83.30
2018-08-31T21:42:44.908Z,83.80
2018-08-31T21:45:13.006Z,83.10
2018-08-31T21:47:40.631Z,83.80
2018-08-31T21:50:08.270Z,84.10
2018-08-31T21:52:36.228Z,84.20
2018-08-31T21:55:04.245Z,84.10
2018-08-31T21:57:31.860Z,81.90
2018-08-31T21:59:59.792Z,82.40
2018-08-31T22:02:28.038Z,82.00
2018-08-31T22:04:55.700Z,81.60
2018-08-31T22:07:23.581Z,81.60
2018-08-31T22:09:51.610Z,82.50
2018-08-31T22:12:19.336Z,81.70
2018-08-31T22:14:46.986Z,81.80
2018-08-31T22:17:14.644Z,82.50
2018-08-31T22:19:42.833Z,82.80
2018-08-31T22:22:11.012Z,85.30
2018-08-31T22:24:38.668Z,85.20
2018-08-31T22:27:06.307Z,82.40
2018-08-31T22:29:37.416Z,83.20
2018-08-31T22:32:05.124Z,83.50
2018-08-31T22:34:32.746Z,85.40
2018-08-31T22:37:00.769Z,88.70
2018-08-31T22:39:28.401Z,90.00
2018-08-31T22:41:55.972Z,89.30
2018-08-31T22:44:23.562Z,89.10
2018-08-31T22:46:51.200Z,88.30
2018-08-31T22:49:18.762Z,88.70
2018-08-31T22:51:46.463Z,89.00
2018-08-31T22:54:14.676Z,90.00
2018-08-31T22:56:42.337Z,90.40
2018-08-31T22:59:11.534Z,91.30
2018-08-31T23:01:40.086Z,91.00
2018-08-31T23:04:07.780Z,91.00
2018-08-31T23:06:35.437Z,91.20
2018-08-31T23:09:03.769Z,91.20
2018-08-31T23:11:31.432Z,91.20
2018-08-31T23:13:59.026Z,90.90
2018-08-31T23:16:26.561Z,91.50
2018-08-31T23:18:54.265Z,91.80
2018-08-31T23:21:21.915Z,92.20
2018-08-31T23:23:49.397Z,92.60
2018-08-31T23:26:17.549Z,91.60
2018-08-31T23:28:45.255Z,91.10
2018-08-31T23:31:13.049Z,90.40
2018-08-31T23:33:40.708Z,90.20
2018-08-31T23:36:08.289Z,90.30
2018-08-31T23:38:35.928Z,90.40
2018-08-31T23:41:04.530Z,90.80
2018-08-31T23:43:32.194Z,91.00
2018-08-31T23:45:59.795Z,91.30
2018-08-31T23:48:27.345Z,92.10
2018-08-31T23:50:54.894Z,91.50
2018-08-31T23:53:22.483Z,91.40
2018-08-31T23:55:50.075Z,91.40
2018-08-31T23:58:17.702Z,90.80
